sensor_id;sensor_type;location;lat;lon;timestamp;temperature;humidity
13711;DHT22;6927;51.256;9.410;2022-12-18T00:00:10;-7.90;99.90
13711;DHT22;6927;51.256;9.410;2022-12-18T00:02:36;-7.90;99.90
13711;DHT22;6927;51.256;9.410;2022-12-18T00:05:01;-8.00;99.90
13711;DHT22;6927;51.256;9.410;2022-12-18T00:07:27;-7.80;99.90
13711;DHT22;6927;51.256;9.410;2022-12-18T00:09:53;-7.90;99.90
13711;DHT22;6927;51.256;9.410;2022-12-18T00:12:18;-7.90;99.90
13711;DHT22;6927;51.256;9.410;2022-12-18T00:14:44;-8.00;99.90
13711;DHT22;6927;51.256;9.410;2022-12-18T00:17:10;-7.90;99.90
13711;DHT22;6927;51.256;9.410;2022-12-18T00:19:35;-7.90;99.90
13711;DHT22;6927;51.256;9.410;2022-12-18T00:22:01;-8.00;99.90
13711;DHT22;6927;51.256;9.410;2022-12-18T00:24:26;-8.00;99.90
13711;DHT22;6927;51.256;9.410;2022-12-18T00:26:52;-8.00;99.90
13711;DHT22;6927;51.256;9.410;2022-12-18T00:29:18;-8.00;99.90
13711;DHT22;6927;51.256;9.410;2022-12-18T00:31:43;-7.90;99.90
13711;DHT22;6927;51.256;9.410;2022-12-18T00:34:11;-8.00;99.90
13711;DHT22;6927;51.256;9.410;2022-12-18T00:36:37;-7.90;99.90
13711;DHT22;6927;51.256;9.410;2022-12-18T00:39:04;-8.00;99.90
13711;DHT22;6927;51.256;9.410;2022-12-18T00:41:30;-8.00;99.90
13711;DHT22;6927;51.256;9.410;2022-12-18T00:44:17;-8.00;99.90
13711;DHT22;6927;51.256;9.410;2022-12-18T00:46:43;-8.10;99.90
13711;DHT22;6927;51.256;9.410;2022-12-18T00:49:13;-8.10;99.90
13711;DHT22;6927;51.256;9.410;2022-12-18T00:51:39;-8.10;99.90
13711;DHT22;6927;51.256;9.410;2022-12-18T00:54:05;-8.10;99.90
13711;DHT22;6927;51.256;9.410;2022-12-18T00:56:31;-8.20;99.90
13711;DHT22;6927;51.256;9.410;2022-12-18T00:58:56;-8.10;99.90
13711;DHT22;6927;51.256;9.410;2022-12-18T01:01:25;-8.10;99.90
13711;DHT22;6927;51.256;9.410;2022-12-18T01:03:51;-8.10;99.90
13711;DHT22;6927;51.256;9.410;2022-12-18T01:06:17;-8.20;99.90
13711;DHT22;6927;51.256;9.410;2022-12-18T01:08:43;-8.20;99.90
13711;DHT22;6927;51.256;9.410;2022-12-18T01:11:10;-8.30;99.90
13711;DHT22;6927;51.256;9.410;2022-12-18T01:13:37;-8.30;99.90
13711;DHT22;6927;51.256;9.410;2022-12-18T01:16:04;-8.30;99.90
13711;DHT22;6927;51.256;9.410;2022-12-18T01:18:29;-8.40;99.90
13711;DHT22;6927;51.256;9.410;2022-12-18T01:20:55;-8.40;99.90
13711;DHT22;6927;51.256;9.410;2022-12-18T01:23:21;-8.40;99.90
13711;DHT22;6927;51.256;9.410;2022-12-18T01:25:46;-8.40;99.90
13711;DHT22;6927;51.256;9.410;2022-12-18T01:28:12;-8.40;99.90
13711;DHT22;6927;51.256;9.410;2022-12-18T01:30:38;-8.40;99.90
13711;DHT22;6927;51.256;9.410;2022-12-18T01:33:06;-8.40;99.90
13711;DHT22;6927;51.256;9.410;2022-12-18T01:35:32;-8.40;99.90
13711;DHT22;6927;51.256;9.410;2022-12-18T01:37:58;-8.40;99.90
13711;DHT22;6927;51.256;9.410;2022-12-18T01:40:23;-8.40;99.90
13711;DHT22;6927;51.256;9.410;2022-12-18T01:42:51;-8.50;99.90
13711;DHT22;6927;51.256;9.410;2022-12-18T01:45:24;-8.40;99.90
13711;DHT22;6927;51.256;9.410;2022-12-18T01:47:53;-8.40;99.90
13711;DHT22;6927;51.256;9.410;2022-12-18T01:50:40;-8.40;99.90
13711;DHT22;6927;51.256;9.410;2022-12-18T01:53:17;-8.40;99.90
13711;DHT22;6927;51.256;9.410;2022-12-18T01:55:48;-8.50;99.90
13711;DHT22;6927;51.256;9.410;2022-12-18T01:58:15;-8.50;99.90
13711;DHT22;6927;51.256;9.410;2022-12-18T02:00:41;-8.60;99.90
13711;DHT22;6927;51.256;9.410;2022-12-18T02:03:07;-8.70;99.90
13711;DHT22;6927;51.256;9.410;2022-12-18T02:11:26;-8.80;99.90
13711;DHT22;6927;51.256;9.410;2022-12-18T02:14:16;-8.90;99.90
13711;DHT22;6927;51.256;9.410;2022-12-18T02:17:07;-9.10;99.90
13711;DHT22;6927;51.256;9.410;2022-12-18T02:19:42;-9.20;99.90
13711;DHT22;6927;51.256;9.410;2022-12-18T02:27:41;-9.30;99.90
13711;DHT22;6927;51.256;9.410;2022-12-18T02:30:12;-9.30;99.90
13711;DHT22;6927;51.256;9.410;2022-12-18T02:32:49;-9.40;99.90
13711;DHT22;6927;51.256;9.410;2022-12-18T02:35:20;-9.40;99.90
13711;DHT22;6927;51.256;9.410;2022-12-18T02:37:54;-9.50;99.90
13711;DHT22;6927;51.256;9.410;2022-12-18T02:40:22;-9.50;99.90
13711;DHT22;6927;51.256;9.410;2022-12-18T02:42:49;-9.60;99.90
13711;DHT22;6927;51.256;9.410;2022-12-18T02:45:15;-9.60;99.90
13711;DHT22;6927;51.256;9.410;2022-12-18T02:47:44;-9.60;99.90
13711;DHT22;6927;51.256;9.410;2022-12-18T02:50:34;-9.70;99.90
13711;DHT22;6927;51.256;9.410;2022-12-18T02:55:48;-9.80;99.90
13711;DHT22;6927;51.256;9.410;2022-12-18T03:04:14;-9.80;99.90
13711;DHT22;6927;51.256;9.410;2022-12-18T03:06:50;-9.80;99.90
13711;DHT22;6927;51.256;9.410;2022-12-18T03:09:34;-9.80;99.90
13711;DHT22;6927;51.256;9.410;2022-12-18T03:12:35;-9.90;99.90
13711;DHT22;6927;51.256;9.410;2022-12-18T03:17:45;-9.90;99.90
13711;DHT22;6927;51.256;9.410;2022-12-18T03:20:18;-9.90;99.90
13711;DHT22;6927;51.256;9.410;2022-12-18T03:22:49;-9.90;99.90
13711;DHT22;6927;51.256;9.410;2022-12-18T03:25:17;-9.90;99.90
13711;DHT22;6927;51.256;9.410;2022-12-18T03:27:48;-9.90;99.90
13711;DHT22;6927;51.256;9.410;2022-12-18T03:30:15;-9.90;99.90
13711;DHT22;6927;51.256;9.410;2022-12-18T03:32:49;-10.00;99.90
13711;DHT22;6927;51.256;9.410;2022-12-18T03:35:22;-10.00;99.90
13711;DHT22;6927;51.256;9.410;2022-12-18T03:37:48;-10.00;99.90
13711;DHT22;6927;51.256;9.410;2022-12-18T03:40:14;-10.10;99.90
13711;DHT22;6927;51.256;9.410;2022-12-18T03:42:48;-10.10;99.90
13711;DHT22;6927;51.256;9.410;2022-12-18T03:45:26;-10.10;99.90
13711;DHT22;6927;51.256;9.410;2022-12-18T03:48:00;-10.20;99.90
13711;DHT22;6927;51.256;9.410;2022-12-18T03:50:49;-10.30;99.90
13711;DHT22;6927;51.256;9.410;2022-12-18T03:53:37;-10.20;99.90
13711;DHT22;6927;51.256;9.410;2022-12-18T03:56:06;-10.20;99.90
13711;DHT22;6927;51.256;9.410;2022-12-18T03:58:35;-10.20;99.90
13711;DHT22;6927;51.256;9.410;2022-12-18T04:01:09;-10.30;99.90
13711;DHT22;6927;51.256;9.410;2022-12-18T04:03:37;-10.30;99.90
13711;DHT22;6927;51.256;9.410;2022-12-18T04:06:05;-10.30;99.90
13711;DHT22;6927;51.256;9.410;2022-12-18T04:08:32;-10.30;99.90
13711;DHT22;6927;51.256;9.410;2022-12-18T04:10:59;-10.30;99.90
13711;DHT22;6927;51.256;9.410;2022-12-18T04:13:29;-10.30;99.90
13711;DHT22;6927;51.256;9.410;2022-12-18T04:15:57;-10.40;99.90
13711;DHT22;6927;51.256;9.410;2022-12-18T04:18:22;-10.40;99.90
13711;DHT22;6927;51.256;9.410;2022-12-18T04:20:48;-10.40;99.90
13711;DHT22;6927;51.256;9.410;2022-12-18T04:23:14;-10.40;99.90
13711;DHT22;6927;51.256;9.410;2022-12-18T04:25:39;-10.40;99.90
13711;DHT22;6927;51.256;9.410;2022-12-18T04:28:11;-10.40;99.90
13711;DHT22;6927;51.256;9.410;2022-12-18T04:34:02;-10.40;99.90
13711;DHT22;6927;51.256;9.410;2022-12-18T04:36:58;-10.40;99.90
13711;DHT22;6927;51.256;9.410;2022-12-18T04:39:43;-10.30;99.90
13711;DHT22;6927;51.256;9.410;2022-12-18T04:42:31;-10.30;99.90
13711;DHT22;6927;51.256;9.410;2022-12-18T04:45:00;-10.30;99.90
13711;DHT22;6927;51.256;9.410;2022-12-18T04:47:28;-10.40;99.90
13711;DHT22;6927;51.256;9.410;2022-12-18T04:50:02;-10.40;99.90
13711;DHT22;6927;51.256;9.410;2022-12-18T04:52:28;-10.40;99.90
13711;DHT22;6927;51.256;9.410;2022-12-18T04:54:54;-10.40;99.90
13711;DHT22;6927;51.256;9.410;2022-12-18T04:57:20;-10.40;99.90
13711;DHT22;6927;51.256;9.410;2022-12-18T04:59:45;-10.40;99.90
13711;DHT22;6927;51.256;9.410;2022-12-18T05:02:14;-10.40;99.90
13711;DHT22;6927;51.256;9.410;2022-12-18T05:05:14;-10.40;99.90
13711;DHT22;6927;51.256;9.410;2022-12-18T05:08:15;-10.40;99.90
13711;DHT22;6927;51.256;9.410;2022-12-18T05:10:41;-10.50;99.90
13711;DHT22;6927;51.256;9.410;2022-12-18T05:13:06;-10.50;99.90
13711;DHT22;6927;51.256;9.410;2022-12-18T05:15:33;-10.50;99.90
13711;DHT22;6927;51.256;9.410;2022-12-18T05:18:02;-10.50;99.90
13711;DHT22;6927;51.256;9.410;2022-12-18T05:20:41;-10.50;99.90
13711;DHT22;6927;51.256;9.410;2022-12-18T05:23:09;-10.50;99.90
13711;DHT22;6927;51.256;9.410;2022-12-18T05:32:35;-10.50;99.90
13711;DHT22;6927;51.256;9.410;2022-12-18T05:42:45;-10.60;99.90
13711;DHT22;6927;51.256;9.410;2022-12-18T07:31:20;-10.60;99.90
13711;DHT22;6927;51.256;9.410;2022-12-18T07:33:46;-10.60;99.90
13711;DHT22;6927;51.256;9.410;2022-12-18T07:36:12;-10.50;99.90
13711;DHT22;6927;51.256;9.410;2022-12-18T07:38:38;-10.50;99.90
13711;DHT22;6927;51.256;9.410;2022-12-18T07:41:05;-10.50;99.90
13711;DHT22;6927;51.256;9.410;2022-12-18T07:43:35;-10.50;99.90
13711;DHT22;6927;51.256;9.410;2022-12-18T07:46:01;-10.40;99.90
13711;DHT22;6927;51.256;9.410;2022-12-18T07:48:28;-10.40;99.90
13711;DHT22;6927;51.256;9.410;2022-12-18T07:50:57;-10.30;99.90
13711;DHT22;6927;51.256;9.410;2022-12-18T07:53:26;-10.30;99.90
13711;DHT22;6927;51.256;9.410;2022-12-18T07:55:59;-10.30;99.90
13711;DHT22;6927;51.256;9.410;2022-12-18T07:58:25;-10.20;99.90
13711;DHT22;6927;51.256;9.410;2022-12-18T08:00:50;-10.10;99.90
13711;DHT22;6927;51.256;9.410;2022-12-18T08:03:20;-10.00;99.90
13711;DHT22;6927;51.256;9.410;2022-12-18T08:05:45;-9.90;99.90
13711;DHT22;6927;51.256;9.410;2022-12-18T08:08:11;-9.80;99.90
13711;DHT22;6927;51.256;9.410;2022-12-18T08:10:37;-9.60;99.90
13711;DHT22;6927;51.256;9.410;2022-12-18T08:13:03;-9.60;99.90
13711;DHT22;6927;51.256;9.410;2022-12-18T08:15:29;-9.50;99.90
13711;DHT22;6927;51.256;9.410;2022-12-18T08:18:03;-9.40;99.90
13711;DHT22;6927;51.256;9.410;2022-12-18T08:20:33;-9.40;99.90
13711;DHT22;6927;51.256;9.410;2022-12-18T08:22:59;-9.10;99.90
13711;DHT22;6927;51.256;9.410;2022-12-18T09:23:07;-3.30;99.90
13711;DHT22;6927;51.256;9.410;2022-12-18T09:25:33;-3.50;99.90
13711;DHT22;6927;51.256;9.410;2022-12-18T09:28:05;-3.40;99.90
13711;DHT22;6927;51.256;9.410;2022-12-18T09:30:31;-3.00;99.90
13711;DHT22;6927;51.256;9.410;2022-12-18T09:32:58;-2.70;99.90
13711;DHT22;6927;51.256;9.410;2022-12-18T09:35:24;-2.50;99.90
13711;DHT22;6927;51.256;9.410;2022-12-18T09:37:50;-2.20;99.90
13711;DHT22;6927;51.256;9.410;2022-12-18T09:40:21;-2.10;99.90
13711;DHT22;6927;51.256;9.410;2022-12-18T09:43:06;-2.00;99.90
13711;DHT22;6927;51.256;9.410;2022-12-18T09:45:42;-2.00;99.90
13711;DHT22;6927;51.256;9.410;2022-12-18T09:48:36;-1.50;99.90
13711;DHT22;6927;51.256;9.410;2022-12-18T09:53:55;1.00;99.90
13711;DHT22;6927;51.256;9.410;2022-12-18T09:56:22;2.00;99.90
13711;DHT22;6927;51.256;9.410;2022-12-18T09:58:58;2.10;99.90
13711;DHT22;6927;51.256;9.410;2022-12-18T10:01:25;2.20;99.90
13711;DHT22;6927;51.256;9.410;2022-12-18T10:03:52;1.90;99.90
13711;DHT22;6927;51.256;9.410;2022-12-18T10:09:09;0.80;99.90
13711;DHT22;6927;51.256;9.410;2022-12-18T10:14:36;0.60;99.90
13711;DHT22;6927;51.256;9.410;2022-12-18T10:19:53;0.20;99.90
13711;DHT22;6927;51.256;9.410;2022-12-18T10:25:21;-0.50;99.90
13711;DHT22;6927;51.256;9.410;2022-12-18T10:27:48;-0.70;99.90
13711;DHT22;6927;51.256;9.410;2022-12-18T10:30:19;-0.70;99.90
13711;DHT22;6927;51.256;9.410;2022-12-18T10:32:45;-0.30;99.90
13711;DHT22;6927;51.256;9.410;2022-12-18T10:35:23;0.40;99.90
13711;DHT22;6927;51.256;9.410;2022-12-18T10:51:03;2.40;99.90
13711;DHT22;6927;51.256;9.410;2022-12-18T10:53:31;2.20;99.90
13711;DHT22;6927;51.256;9.410;2022-12-18T10:55:59;2.30;99.90
13711;DHT22;6927;51.256;9.410;2022-12-18T10:58:28;2.00;99.90
13711;DHT22;6927;51.256;9.410;2022-12-18T11:01:15;1.40;99.90
13711;DHT22;6927;51.256;9.410;2022-12-18T11:03:43;0.90;99.90
13711;DHT22;6927;51.256;9.410;2022-12-18T11:06:17;0.50;99.90
13711;DHT22;6927;51.256;9.410;2022-12-18T11:08:56;0.10;99.90
13711;DHT22;6927;51.256;9.410;2022-12-18T11:11:23;-0.10;99.90
13711;DHT22;6927;51.256;9.410;2022-12-18T11:14:05;-0.20;99.90
13711;DHT22;6927;51.256;9.410;2022-12-18T11:16:44;-0.50;99.90
13711;DHT22;6927;51.256;9.410;2022-12-18T11:19:37;-0.60;99.90
13711;DHT22;6927;51.256;9.410;2022-12-18T11:22:26;-0.70;99.90
13711;DHT22;6927;51.256;9.410;2022-12-18T11:25:19;-0.80;99.90
13711;DHT22;6927;51.256;9.410;2022-12-18T11:27:56;-0.90;99.90
13711;DHT22;6927;51.256;9.410;2022-12-18T11:54:25;-1.90;99.90
13711;DHT22;6927;51.256;9.410;2022-12-18T12:04:29;-1.50;99.90
13711;DHT22;6927;51.256;9.410;2022-12-18T12:21:40;-1.40;99.90
13711;DHT22;6927;51.256;9.410;2022-12-18T12:24:46;-1.40;99.90
13711;DHT22;6927;51.256;9.410;2022-12-18T12:30:18;-1.50;99.90
13711;DHT22;6927;51.256;9.410;2022-12-18T12:38:49;-1.50;99.90
13711;DHT22;6927;51.256;9.410;2022-12-18T12:45:48;-1.40;99.90
13711;DHT22;6927;51.256;9.410;2022-12-18T12:55:00;-1.80;99.90
13711;DHT22;6927;51.256;9.410;2022-12-18T13:00:20;-1.80;99.90
13711;DHT22;6927;51.256;9.410;2022-12-18T13:06:50;-2.00;99.90
13711;DHT22;6927;51.256;9.410;2022-12-18T13:09:15;-2.00;99.90
13711;DHT22;6927;51.256;9.410;2022-12-18T13:11:57;-2.00;99.90
13711;DHT22;6927;51.256;9.410;2022-12-18T13:21:39;-2.00;99.90
13711;DHT22;6927;51.256;9.410;2022-12-18T13:24:23;-2.00;99.90
13711;DHT22;6927;51.256;9.410;2022-12-18T13:36:29;-2.10;99.90
13711;DHT22;6927;51.256;9.410;2022-12-18T13:41:42;-2.00;99.90
13711;DHT22;6927;51.256;9.410;2022-12-18T13:44:25;-2.10;99.90
13711;DHT22;6927;51.256;9.410;2022-12-18T13:46:52;-2.00;99.90
13711;DHT22;6927;51.256;9.410;2022-12-18T13:49:22;-2.10;99.90
13711;DHT22;6927;51.256;9.410;2022-12-18T13:51:51;-2.10;99.90
13711;DHT22;6927;51.256;9.410;2022-12-18T13:54:32;-2.10;99.90
13711;DHT22;6927;51.256;9.410;2022-12-18T13:56:59;-2.10;99.90
13711;DHT22;6927;51.256;9.410;2022-12-18T13:59:36;-2.20;99.90
13711;DHT22;6927;51.256;9.410;2022-12-18T14:02:22;-2.20;99.90
13711;DHT22;6927;51.256;9.410;2022-12-18T14:04:48;-2.30;99.90
13711;DHT22;6927;51.256;9.410;2022-12-18T14:07:18;-2.30;99.90
13711;DHT22;6927;51.256;9.410;2022-12-18T14:09:50;-2.30;99.90
13711;DHT22;6927;51.256;9.410;2022-12-18T14:28:16;-2.50;99.90
13711;DHT22;6927;51.256;9.410;2022-12-18T14:30:54;-2.50;99.90
13711;DHT22;6927;51.256;9.410;2022-12-18T14:33:59;-2.50;99.90
13711;DHT22;6927;51.256;9.410;2022-12-18T14:36:30;-2.60;99.90
13711;DHT22;6927;51.256;9.410;2022-12-18T14:39:13;-2.70;99.90
13711;DHT22;6927;51.256;9.410;2022-12-18T14:41:44;-2.70;99.90
13711;DHT22;6927;51.256;9.410;2022-12-18T14:44:31;-2.70;99.90
13711;DHT22;6927;51.256;9.410;2022-12-18T14:46:57;-2.80;99.90
13711;DHT22;6927;51.256;9.410;2022-12-18T14:49:33;-2.90;99.90
13711;DHT22;6927;51.256;9.410;2022-12-18T14:52:05;-2.90;99.90
13711;DHT22;6927;51.256;9.410;2022-12-18T14:54:32;-3.00;99.90
13711;DHT22;6927;51.256;9.410;2022-12-18T14:57:24;-3.00;99.90
13711;DHT22;6927;51.256;9.410;2022-12-18T14:59:50;-3.00;99.90
13711;DHT22;6927;51.256;9.410;2022-12-18T15:02:27;-3.00;99.90
13711;DHT22;6927;51.256;9.410;2022-12-18T15:05:04;-3.10;99.90
13711;DHT22;6927;51.256;9.410;2022-12-18T15:07:59;-3.10;99.90
13711;DHT22;6927;51.256;9.410;2022-12-18T15:10:33;-3.20;99.90
13711;DHT22;6927;51.256;9.410;2022-12-18T15:20:40;-3.30;99.90
13711;DHT22;6927;51.256;9.410;2022-12-18T15:26:00;-3.30;99.90
13711;DHT22;6927;51.256;9.410;2022-12-18T15:28:52;-3.30;99.90
13711;DHT22;6927;51.256;9.410;2022-12-18T15:31:34;-3.40;99.90
13711;DHT22;6927;51.256;9.410;2022-12-18T15:34:13;-3.50;99.90
13711;DHT22;6927;51.256;9.410;2022-12-18T15:36:39;-3.50;99.90
13711;DHT22;6927;51.256;9.410;2022-12-18T15:39:05;-3.50;99.90
13711;DHT22;6927;51.256;9.410;2022-12-18T15:41:33;-3.60;99.90
13711;DHT22;6927;51.256;9.410;2022-12-18T15:43:59;-3.60;99.90
13711;DHT22;6927;51.256;9.410;2022-12-18T15:46:25;-3.60;99.90
13711;DHT22;6927;51.256;9.410;2022-12-18T15:48:56;-3.60;99.90
13711;DHT22;6927;51.256;9.410;2022-12-18T15:51:33;-3.50;99.90
13711;DHT22;6927;51.256;9.410;2022-12-18T15:54:01;-3.50;99.90
13711;DHT22;6927;51.256;9.410;2022-12-18T15:56:28;-3.50;99.90
13711;DHT22;6927;51.256;9.410;2022-12-18T15:59:16;-3.60;99.90
13711;DHT22;6927;51.256;9.410;2022-12-18T16:01:46;-3.60;99.90
13711;DHT22;6927;51.256;9.410;2022-12-18T16:04:14;-3.70;99.90
13711;DHT22;6927;51.256;9.410;2022-12-18T16:06:40;-3.60;99.90
13711;DHT22;6927;51.256;9.410;2022-12-18T16:09:06;-3.60;99.90
13711;DHT22;6927;51.256;9.410;2022-12-18T16:11:34;-3.60;99.90
13711;DHT22;6927;51.256;9.410;2022-12-18T16:14:24;-3.60;99.90
13711;DHT22;6927;51.256;9.410;2022-12-18T16:16:57;-3.60;99.90
13711;DHT22;6927;51.256;9.410;2022-12-18T16:19:24;-3.70;99.90
13711;DHT22;6927;51.256;9.410;2022-12-18T16:21:52;-3.70;99.90
13711;DHT22;6927;51.256;9.410;2022-12-18T16:24:20;-3.60;99.90
13711;DHT22;6927;51.256;9.410;2022-12-18T16:26:47;-3.60;99.90
13711;DHT22;6927;51.256;9.410;2022-12-18T16:29:13;-3.60;99.90
13711;DHT22;6927;51.256;9.410;2022-12-18T16:31:39;-3.70;99.90
13711;DHT22;6927;51.256;9.410;2022-12-18T16:34:34;-3.70;99.90
13711;DHT22;6927;51.256;9.410;2022-12-18T16:37:04;-3.70;99.90
13711;DHT22;6927;51.256;9.410;2022-12-18T16:39:30;-3.60;99.90
13711;DHT22;6927;51.256;9.410;2022-12-18T16:41:56;-3.60;99.90
13711;DHT22;6927;51.256;9.410;2022-12-18T16:44:22;-3.70;99.90
13711;DHT22;6927;51.256;9.410;2022-12-18T16:46:48;-3.70;99.90
13711;DHT22;6927;51.256;9.410;2022-12-18T16:49:15;-3.70;99.90
13711;DHT22;6927;51.256;9.410;2022-12-18T16:51:41;-3.80;99.90
13711;DHT22;6927;51.256;9.410;2022-12-18T16:54:07;-3.80;99.90
13711;DHT22;6927;51.256;9.410;2022-12-18T16:56:33;-3.70;99.90
13711;DHT22;6927;51.256;9.410;2022-12-18T16:59:00;-3.70;99.90
13711;DHT22;6927;51.256;9.410;2022-12-18T17:01:27;-3.70;99.90
13711;DHT22;6927;51.256;9.410;2022-12-18T17:03:58;-3.70;99.90
13711;DHT22;6927;51.256;9.410;2022-12-18T17:06:26;-3.70;99.90
13711;DHT22;6927;51.256;9.410;2022-12-18T17:09:00;-3.70;99.90
13711;DHT22;6927;51.256;9.410;2022-12-18T17:11:27;-3.70;99.90
13711;DHT22;6927;51.256;9.410;2022-12-18T17:13:53;-3.80;99.90
13711;DHT22;6927;51.256;9.410;2022-12-18T17:16:19;-3.70;99.90
13711;DHT22;6927;51.256;9.410;2022-12-18T17:18:44;-3.70;99.90
13711;DHT22;6927;51.256;9.410;2022-12-18T17:21:11;-3.70;99.90
13711;DHT22;6927;51.256;9.410;2022-12-18T17:23:39;-3.70;99.90
13711;DHT22;6927;51.256;9.410;2022-12-18T17:26:05;-3.70;99.90
13711;DHT22;6927;51.256;9.410;2022-12-18T17:28:33;-3.70;99.90
13711;DHT22;6927;51.256;9.410;2022-12-18T17:30:59;-3.80;99.90
13711;DHT22;6927;51.256;9.410;2022-12-18T17:33:25;-3.80;99.90
13711;DHT22;6927;51.256;9.410;2022-12-18T17:35:51;-3.70;99.90
13711;DHT22;6927;51.256;9.410;2022-12-18T17:38:17;-3.80;99.90
13711;DHT22;6927;51.256;9.410;2022-12-18T17:40:43;-3.70;99.90
13711;DHT22;6927;51.256;9.410;2022-12-18T17:43:09;-3.70;99.90
13711;DHT22;6927;51.256;9.410;2022-12-18T17:45:38;-3.80;99.90
13711;DHT22;6927;51.256;9.410;2022-12-18T17:48:05;-3.80;99.90
13711;DHT22;6927;51.256;9.410;2022-12-18T17:50:32;-3.80;99.90
13711;DHT22;6927;51.256;9.410;2022-12-18T17:52:58;-3.80;99.90
13711;DHT22;6927;51.256;9.410;2022-12-18T17:55:24;-3.80;99.90
13711;DHT22;6927;51.256;9.410;2022-12-18T17:57:50;-3.80;99.90
13711;DHT22;6927;51.256;9.410;2022-12-18T18:00:16;-3.80;99.90
13711;DHT22;6927;51.256;9.410;2022-12-18T18:02:42;-3.80;99.90
13711;DHT22;6927;51.256;9.410;2022-12-18T18:05:07;-3.70;99.90
13711;DHT22;6927;51.256;9.410;2022-12-18T18:07:33;-3.70;99.90
13711;DHT22;6927;51.256;9.410;2022-12-18T18:09:59;-3.70;99.90
13711;DHT22;6927;51.256;9.410;2022-12-18T18:12:24;-3.70;99.90
13711;DHT22;6927;51.256;9.410;2022-12-18T18:15:09;-3.70;99.90
13711;DHT22;6927;51.256;9.410;2022-12-18T18:17:35;-3.70;99.90
13711;DHT22;6927;51.256;9.410;2022-12-18T18:20:00;-3.70;99.90
13711;DHT22;6927;51.256;9.410;2022-12-18T18:22:26;-3.70;99.90
13711;DHT22;6927;51.256;9.410;2022-12-18T18:24:51;-3.70;99.90
13711;DHT22;6927;51.256;9.410;2022-12-18T18:27:17;-3.70;99.90
13711;DHT22;6927;51.256;9.410;2022-12-18T18:29:43;-3.80;99.90
13711;DHT22;6927;51.256;9.410;2022-12-18T18:32:11;-3.80;99.90
13711;DHT22;6927;51.256;9.410;2022-12-18T18:34:42;-3.80;99.90
13711;DHT22;6927;51.256;9.410;2022-12-18T18:37:16;-3.90;99.90
13711;DHT22;6927;51.256;9.410;2022-12-18T18:43:23;-3.80;99.90
13711;DHT22;6927;51.256;9.410;2022-12-18T18:46:28;-3.90;99.90
13711;DHT22;6927;51.256;9.410;2022-12-18T18:49:17;-3.80;99.90
13711;DHT22;6927;51.256;9.410;2022-12-18T18:57:55;-3.80;99.90
13711;DHT22;6927;51.256;9.410;2022-12-18T19:03:36;-3.70;99.90
13711;DHT22;6927;51.256;9.410;2022-12-18T19:06:29;-3.70;99.90
13711;DHT22;6927;51.256;9.410;2022-12-18T19:09:33;-3.70;99.90
13711;DHT22;6927;51.256;9.410;2022-12-18T19:15:25;-3.70;99.90
13711;DHT22;6927;51.256;9.410;2022-12-18T19:18:15;-3.70;99.90
13711;DHT22;6927;51.256;9.410;2022-12-18T19:21:02;-3.70;99.90
13711;DHT22;6927;51.256;9.410;2022-12-18T19:23:32;-3.50;99.90
13711;DHT22;6927;51.256;9.410;2022-12-18T19:25:59;-3.60;99.90
13711;DHT22;6927;51.256;9.410;2022-12-18T19:28:36;-3.60;99.90
13711;DHT22;6927;51.256;9.410;2022-12-18T19:31:13;-3.60;99.90
13711;DHT22;6927;51.256;9.410;2022-12-18T19:33:55;-3.70;99.90
13711;DHT22;6927;51.256;9.410;2022-12-18T19:36:35;-3.60;99.90
13711;DHT22;6927;51.256;9.410;2022-12-18T19:39:11;-3.50;99.90
13711;DHT22;6927;51.256;9.410;2022-12-18T19:41:40;-3.60;99.90
13711;DHT22;6927;51.256;9.410;2022-12-18T19:44:16;-3.60;99.90
13711;DHT22;6927;51.256;9.410;2022-12-18T19:46:59;-3.60;99.90
13711;DHT22;6927;51.256;9.410;2022-12-18T19:49:33;-3.60;99.90
13711;DHT22;6927;51.256;9.410;2022-12-18T19:52:06;-3.60;99.90
13711;DHT22;6927;51.256;9.410;2022-12-18T19:54:43;-3.50;99.90
13711;DHT22;6927;51.256;9.410;2022-12-18T19:57:32;-3.50;99.90
13711;DHT22;6927;51.256;9.410;2022-12-18T20:00:21;-3.50;99.90
13711;DHT22;6927;51.256;9.410;2022-12-18T20:02:53;-3.50;99.90
13711;DHT22;6927;51.256;9.410;2022-12-18T20:05:29;-3.60;99.90
13711;DHT22;6927;51.256;9.410;2022-12-18T20:07:55;-3.50;99.90
13711;DHT22;6927;51.256;9.410;2022-12-18T20:10:21;-3.50;99.90
13711;DHT22;6927;51.256;9.410;2022-12-18T20:12:58;-3.50;99.90
13711;DHT22;6927;51.256;9.410;2022-12-18T20:15:36;-3.50;99.90
13711;DHT22;6927;51.256;9.410;2022-12-18T20:18:14;-3.40;99.90
13711;DHT22;6927;51.256;9.410;2022-12-18T20:20:46;-3.40;99.90
13711;DHT22;6927;51.256;9.410;2022-12-18T20:23:28;-3.40;99.90
13711;DHT22;6927;51.256;9.410;2022-12-18T20:25:56;-3.40;99.90
13711;DHT22;6927;51.256;9.410;2022-12-18T20:28:26;-3.40;99.90
13711;DHT22;6927;51.256;9.410;2022-12-18T20:31:19;-3.40;99.90
13711;DHT22;6927;51.256;9.410;2022-12-18T20:33:45;-3.40;99.90
13711;DHT22;6927;51.256;9.410;2022-12-18T20:36:14;-3.40;99.90
13711;DHT22;6927;51.256;9.410;2022-12-18T20:38:42;-3.40;99.90
13711;DHT22;6927;51.256;9.410;2022-12-18T20:41:21;-3.30;99.90
13711;DHT22;6927;51.256;9.410;2022-12-18T20:43:57;-3.30;99.90
13711;DHT22;6927;51.256;9.410;2022-12-18T20:46:22;-3.30;99.90
13711;DHT22;6927;51.256;9.410;2022-12-18T20:48:51;-3.40;99.90
13711;DHT22;6927;51.256;9.410;2022-12-18T20:51:22;-3.30;99.90
13711;DHT22;6927;51.256;9.410;2022-12-18T20:53:48;-3.30;99.90
13711;DHT22;6927;51.256;9.410;2022-12-18T20:56:21;-3.30;99.90
13711;DHT22;6927;51.256;9.410;2022-12-18T20:59:05;-3.20;99.90
13711;DHT22;6927;51.256;9.410;2022-12-18T21:01:31;-3.10;99.90
13711;DHT22;6927;51.256;9.410;2022-12-18T21:03:57;-3.20;99.90
13711;DHT22;6927;51.256;9.410;2022-12-18T21:06:29;-3.20;99.90
13711;DHT22;6927;51.256;9.410;2022-12-18T21:09:15;-3.10;99.90
13711;DHT22;6927;51.256;9.410;2022-12-18T21:11:48;-3.20;99.90
13711;DHT22;6927;51.256;9.410;2022-12-18T21:14:36;-3.20;99.90
13711;DHT22;6927;51.256;9.410;2022-12-18T21:17:07;-3.20;99.90
13711;DHT22;6927;51.256;9.410;2022-12-18T21:19:33;-3.10;99.90
13711;DHT22;6927;51.256;9.410;2022-12-18T21:21:59;-3.20;99.90
13711;DHT22;6927;51.256;9.410;2022-12-18T21:24:34;-3.10;99.90
13711;DHT22;6927;51.256;9.410;2022-12-18T21:27:18;-3.20;99.90
13711;DHT22;6927;51.256;9.410;2022-12-18T21:29:49;-3.20;99.90
13711;DHT22;6927;51.256;9.410;2022-12-18T21:32:20;-3.20;99.90
13711;DHT22;6927;51.256;9.410;2022-12-18T21:35:12;-3.20;99.90
13711;DHT22;6927;51.256;9.410;2022-12-18T21:37:58;-3.20;99.90
13711;DHT22;6927;51.256;9.410;2022-12-18T21:40:29;-3.10;99.90
13711;DHT22;6927;51.256;9.410;2022-12-18T21:43:05;-3.10;99.90
13711;DHT22;6927;51.256;9.410;2022-12-18T21:45:52;-3.10;99.90
13711;DHT22;6927;51.256;9.410;2022-12-18T21:55:09;-3.00;99.90
13711;DHT22;6927;51.256;9.410;2022-12-18T21:58:07;-3.00;99.90
13711;DHT22;6927;51.256;9.410;2022-12-18T22:01:07;-3.00;99.90
13711;DHT22;6927;51.256;9.410;2022-12-18T22:04:25;-3.00;99.90
13711;DHT22;6927;51.256;9.410;2022-12-18T22:07:09;-2.90;99.90
13711;DHT22;6927;51.256;9.410;2022-12-18T22:09:48;-2.90;99.90
13711;DHT22;6927;51.256;9.410;2022-12-18T22:29:33;-2.70;99.90
13711;DHT22;6927;51.256;9.410;2022-12-18T22:32:47;-2.70;99.90
13711;DHT22;6927;51.256;9.410;2022-12-18T22:35:41;-2.60;99.90
13711;DHT22;6927;51.256;9.410;2022-12-18T22:38:08;-2.60;99.90
13711;DHT22;6927;51.256;9.410;2022-12-18T22:40:46;-2.60;99.90
13711;DHT22;6927;51.256;9.410;2022-12-18T22:45:47;-2.60;99.90
13711;DHT22;6927;51.256;9.410;2022-12-18T22:48:31;-2.60;99.90
13711;DHT22;6927;51.256;9.410;2022-12-18T22:51:07;-2.60;99.90